Capital Elite — WDD4777 — position and weather

sailwx.info

Track history (hours):
 
Tides and Currents Weather Stations Pressure Air Temp Water Temp Dewpoint Dewpoint Depression Visibility Wind Speed Wind Dir Waves Ship Positions

Capital Elite

Owner: Spirit Cruises, LLC, Chicago, IL. More information available from US FCC via Universal Licensing System and Coast Guard Vessel Documentation Center.

Last reported at 2017-Oct-17 14:44 UTC. Time now 2017-Oct-18 05:32 UTC.
Position N 38°52' W 077°01'.

Length 21 m; draft 0.9 m.

Type: Passenger vessel. MMSI: 367148890.

Date/timePositionNaut miles runAvg speedWind from/ knotsBaromVisibWave heightAir tempDewpointWater temp
2017-Oct-17 14:44N 38°52' W 077°01'1 2.7
2017-Oct-17 14:27N 38°52' W 077°01'0 0.0
2017-Oct-17 13:55N 38°52' W 077°01'0 1.1
2017-Oct-17 13:30N 38°52' W 077°01'0 0.0
2017-Oct-17 01:26N 38°52' W 077°01'1 1.9
2017-Oct-17 00:59N 38°52' W 077°00'2 5.1
2017-Oct-17 00:30N 38°50' W 077°02'3 5.2
2017-Oct-16 23:59N 38°47' W 077°02'1 2.0
2017-Oct-16 23:30N 38°48' W 077°02'3 6.0
2017-Oct-16 23:00N 38°51' W 077°01'1 2.9
2017-Oct-16 22:29N 38°52' W 077°01'0 0.0
2017-Oct-16 21:59N 38°52' W 077°01'0 0.0
2017-Oct-16 21:29N 38°52' W 077°01'0 0.0
2017-Oct-16 20:53N 38°52' W 077°01'0 0.0
2017-Oct-16 20:23N 38°52' W 077°01'0 0.0
2017-Oct-16 19:55N 38°52' W 077°01'0 0.0
2017-Oct-16 19:30N 38°52' W 077°01'0 0.0
2017-Oct-16 18:58N 38°52' W 077°01'0 0.0
2017-Oct-15 01:53N 38°52' W 077°01'1 2.3
2017-Oct-15 01:30N 38°52' W 077°02'1 2.7
2017-Oct-15 01:00N 38°50' W 077°02'3 5.4
2017-Oct-15 00:30N 38°48' W 077°02'1 1.9
2017-Oct-15 00:00N 38°47' W 077°01'1 2.4
2017-Oct-14 23:30N 38°48' W 077°02'3 6.3
2017-Oct-14 23:00N 38°51' W 077°01'2 3.1
2017-Oct-14 22:27N 38°53' W 077°02'0 1.0
2017-Oct-14 22:00N 38°52' W 077°01'0 0.0
2017-Oct-14 21:24N 38°52' W 077°01'0 0.0
2017-Oct-14 20:56N 38°52' W 077°01'0 0.0
2017-Oct-14 20:28N 38°52' W 077°01'0 0.0
2017-Oct-14 19:59N 38°52' W 077°01'0 0.0
2017-Oct-14 19:28N 38°52' W 077°01'0 0.2
2017-Oct-14 18:56N 38°52' W 077°01'1 1.9
2017-Oct-14 18:25N 38°52' W 077°00'1 3.4
2017-Oct-14 18:00N 38°52' W 077°02'1 1.0
2017-Oct-14 17:30N 38°52' W 077°01'1 1.1
2017-Oct-14 17:00N 38°52' W 077°01'0 0.2
2017-Oct-14 16:25N 38°52' W 077°01'0 0.0
2017-Oct-14 15:55N 38°52' W 077°01'0 0.0
2017-Oct-14 15:23N 38°52' W 077°01'0 0.0
2017-Oct-14 14:43N 38°52' W 077°01'0 0.0
2017-Oct-14 14:28N 38°52' W 077°01'0 0.0
2017-Oct-14 13:58N 38°52' W 077°01'0 0.0
2017-Oct-12 17:30N 38°52' W 077°01'1 1.0
2017-Oct-12 16:58N 38°53' W 077°02'1 1.0
2017-Oct-12 16:27N 38°52' W 077°01'0 0.0
2017-Oct-12 15:59N 38°52' W 077°01'0 0.0
2017-Oct-12 15:13N 38°52' W 077°01'0 0.0
2017-Oct-12 15:00N 38°52' W 077°01'0 0.0
2017-Oct-11 22:53N 38°52' W 077°01'0 0.2
2017-Oct-11 22:28N 38°52' W 077°01'1 2.6
2017-Oct-11 22:00N 38°52' W 076°60'1 2.3
2017-Oct-11 21:30N 38°52' W 077°01'0 0.8
2017-Oct-11 20:53N 38°52' W 077°01'0 0.0
2017-Oct-11 20:23N 38°52' W 077°01'0 0.0
2017-Oct-11 19:51N 38°52' W 077°01'0 0.0
2017-Oct-11 19:23N 38°52' W 077°01'0 0.0
2017-Oct-11 18:59N 38°52' W 077°01'0 0.0
2017-Oct-11 18:15N 38°52' W 077°01'0 0.0
2017-Oct-11 17:55N 38°52' W 077°01'  
2017-Oct-08 01:06N 38°52' W 077°01'0 1.5
2017-Oct-08 01:00N 38°53' W 077°01'0 0.2
2017-Oct-08 00:24N 38°52' W 077°01'1 2.0
2017-Oct-08 00:00N 38°52' W 077°02'3 6.4
2017-Oct-07 23:30N 38°49' W 077°02'2 3.3
2017-Oct-07 23:00N 38°47' W 077°01'1 1.8
2017-Oct-07 22:30N 38°47' W 077°02'2 3.8
2017-Oct-07 22:00N 38°49' W 077°02'3 5.7
2017-Oct-07 21:30N 38°52' W 077°01'0 0.5
2017-Oct-07 20:54N 38°52' W 077°01'0 0.0
2017-Oct-07 20:22N 38°52' W 077°01'0 0.0
2017-Oct-07 19:56N 38°52' W 077°01'0 0.0
2017-Oct-07 19:21N 38°52' W 077°01'0 0.0
2017-Oct-07 18:54N 38°52' W 077°01'1 2.2
2017-Oct-07 18:30N 38°52' W 077°01'0 0.8
2017-Oct-07 18:00N 38°51' W 077°01'0 0.4
2017-Oct-07 17:29N 38°51' W 077°01'1 2.2
2017-Oct-07 16:59N 38°52' W 077°01'0 0.0
2017-Oct-07 16:19N 38°52' W 077°01'0 0.0
2017-Oct-07 15:57N 38°52' W 077°01'0 0.0
2017-Oct-07 15:30N 38°52' W 077°01'  
Track history (hours):
 
Tides and Currents Weather Stations Pressure Air Temp Water Temp Dewpoint Dewpoint Depression Visibility Wind Speed Wind Dir Waves Ship Positions

Capital Elite

Owner: Spirit Cruises, LLC, Chicago, IL. More information available from US FCC via Universal Licensing System and Coast Guard Vessel Documentation Center.

Last reported at 2017-Oct-17 14:44 UTC. Time now 2017-Oct-18 05:32 UTC.
Position N 38°52' W 077°01'.

Length 21 m; draft 0.9 m.

Type: Passenger vessel. MMSI: 367148890.

Date/timePositionNaut miles runAvg speedWind from/ knotsBaromVisibWave heightAir tempDewpointWater temp
2017-Oct-17 14:44N 38°52' W 077°01'1 2.7
2017-Oct-17 14:27N 38°52' W 077°01'0 0.0
2017-Oct-17 13:55N 38°52' W 077°01'0 1.1
2017-Oct-17 13:30N 38°52' W 077°01'0 0.0
2017-Oct-17 01:26N 38°52' W 077°01'1 1.9
2017-Oct-17 00:59N 38°52' W 077°00'2 5.1
2017-Oct-17 00:30N 38°50' W 077°02'3 5.2
2017-Oct-16 23:59N 38°47' W 077°02'1 2.0
2017-Oct-16 23:30N 38°48' W 077°02'3 6.0
2017-Oct-16 23:00N 38°51' W 077°01'1 2.9
2017-Oct-16 22:29N 38°52' W 077°01'0 0.0
2017-Oct-16 21:59N 38°52' W 077°01'0 0.0
2017-Oct-16 21:29N 38°52' W 077°01'0 0.0
2017-Oct-16 20:53N 38°52' W 077°01'0 0.0
2017-Oct-16 20:23N 38°52' W 077°01'0 0.0
2017-Oct-16 19:55N 38°52' W 077°01'0 0.0
2017-Oct-16 19:30N 38°52' W 077°01'0 0.0
2017-Oct-16 18:58N 38°52' W 077°01'0 0.0
2017-Oct-15 01:53N 38°52' W 077°01'1 2.3
2017-Oct-15 01:30N 38°52' W 077°02'1 2.7
2017-Oct-15 01:00N 38°50' W 077°02'3 5.4
2017-Oct-15 00:30N 38°48' W 077°02'1 1.9
2017-Oct-15 00:00N 38°47' W 077°01'1 2.4
2017-Oct-14 23:30N 38°48' W 077°02'3 6.3
2017-Oct-14 23:00N 38°51' W 077°01'2 3.1
2017-Oct-14 22:27N 38°53' W 077°02'0 1.0
2017-Oct-14 22:00N 38°52' W 077°01'0 0.0
2017-Oct-14 21:24N 38°52' W 077°01'0 0.0
2017-Oct-14 20:56N 38°52' W 077°01'0 0.0
2017-Oct-14 20:28N 38°52' W 077°01'0 0.0
2017-Oct-14 19:59N 38°52' W 077°01'0 0.0
2017-Oct-14 19:28N 38°52' W 077°01'0 0.2
2017-Oct-14 18:56N 38°52' W 077°01'1 1.9
2017-Oct-14 18:25N 38°52' W 077°00'1 3.4
2017-Oct-14 18:00N 38°52' W 077°02'1 1.0
2017-Oct-14 17:30N 38°52' W 077°01'1 1.1
2017-Oct-14 17:00N 38°52' W 077°01'0 0.2
2017-Oct-14 16:25N 38°52' W 077°01'0 0.0
2017-Oct-14 15:55N 38°52' W 077°01'0 0.0
2017-Oct-14 15:23N 38°52' W 077°01'0 0.0
2017-Oct-14 14:43N 38°52' W 077°01'0 0.0
2017-Oct-14 14:28N 38°52' W 077°01'0 0.0
2017-Oct-14 13:58N 38°52' W 077°01'0 0.0
2017-Oct-12 17:30N 38°52' W 077°01'1 1.0
2017-Oct-12 16:58N 38°53' W 077°02'1 1.0
2017-Oct-12 16:27N 38°52' W 077°01'0 0.0
2017-Oct-12 15:59N 38°52' W 077°01'0 0.0
2017-Oct-12 15:13N 38°52' W 077°01'0 0.0
2017-Oct-12 15:00N 38°52' W 077°01'0 0.0
2017-Oct-11 22:53N 38°52' W 077°01'0 0.2
2017-Oct-11 22:28N 38°52' W 077°01'1 2.6
2017-Oct-11 22:00N 38°52' W 076°60'1 2.3
2017-Oct-11 21:30N 38°52' W 077°01'0 0.8
2017-Oct-11 20:53N 38°52' W 077°01'0 0.0
2017-Oct-11 20:23N 38°52' W 077°01'0 0.0
2017-Oct-11 19:51N 38°52' W 077°01'0 0.0
2017-Oct-11 19:23N 38°52' W 077°01'0 0.0
2017-Oct-11 18:59N 38°52' W 077°01'0 0.0
2017-Oct-11 18:15N 38°52' W 077°01'0 0.0
2017-Oct-11 17:55N 38°52' W 077°01'  
2017-Oct-08 01:06N 38°52' W 077°01'0 1.5
2017-Oct-08 01:00N 38°53' W 077°01'0 0.2
2017-Oct-08 00:24N 38°52' W 077°01'1 2.0
2017-Oct-08 00:00N 38°52' W 077°02'3 6.4
2017-Oct-07 23:30N 38°49' W 077°02'2 3.3
2017-Oct-07 23:00N 38°47' W 077°01'1 1.8
2017-Oct-07 22:30N 38°47' W 077°02'2 3.8
2017-Oct-07 22:00N 38°49' W 077°02'3 5.7
2017-Oct-07 21:30N 38°52' W 077°01'0 0.5
2017-Oct-07 20:54N 38°52' W 077°01'0 0.0
2017-Oct-07 20:22N 38°52' W 077°01'0 0.0
2017-Oct-07 19:56N 38°52' W 077°01'0 0.0
2017-Oct-07 19:21N 38°52' W 077°01'0 0.0
2017-Oct-07 18:54N 38°52' W 077°01'1 2.2
2017-Oct-07 18:30N 38°52' W 077°01'0 0.8
2017-Oct-07 18:00N 38°51' W 077°01'0 0.4
2017-Oct-07 17:29N 38°51' W 077°01'1 2.2
2017-Oct-07 16:59N 38°52' W 077°01'0 0.0
2017-Oct-07 16:19N 38°52' W 077°01'0 0.0
2017-Oct-07 15:57N 38°52' W 077°01'0 0.0
2017-Oct-07 15:30N 38°52' W 077°01'  

Dump ship's entire track history